Time;durP1;ratioP1;P1;durP2;ratioP2;P2;SDS_P1;SDS_P2;PMS_P1;PMS_P2;Temp;Humidity;BMP_temperature;BMP_pressure;BME280_temperature;BME280_humidity;BME280_pressure;Samples;Min_cycle;Max_cycle;Signal;HPM_P1;HPM_P2
2023/09/11 00:00:42;;;;;;;28.20;23.45;;;;;;;;;;6267154;28;20292;-85
2023/09/11 00:03:45;;;;;;;30.13;24.63;;;;;;;;;;6267935;28;20256;-83
2023/09/11 00:06:47;;;;;;;32.67;24.52;;;;;;;;;;6266823;28;20052;-83
2023/09/11 00:09:51;;;;;;;28.65;22.58;;;;;;;;;;6267431;28;20356;-84
2023/09/11 00:13:32;;;;;;;28.05;22.15;;;;;;;;;;6255527;28;20345;-85
2023/09/11 00:16:48;;;;;;;24.90;22.23;;;;;;;;;;6255973;28;20049;-84
2023/09/11 00:23:15;;;;;;;25.30;22.55;;;;;;;;;;6262840;28;20067;-84
2023/09/11 00:26:17;;;;;;;30.67;24.20;;;;;;;;;;6267279;28;20341;-84
2023/09/11 00:32:39;;;;;;;26.63;22.98;;;;;;;;;;6247091;28;20045;-84
2023/09/11 00:35:46;;;;;;;29.67;23.77;;;;;;;;;;6265449;28;20045;-84
2023/09/11 00:38:50;;;;;;;27.25;22.52;;;;;;;;;;6266252;28;20049;-84
2023/09/11 00:41:52;;;;;;;30.00;24.75;;;;;;;;;;6266194;28;20115;-85
2023/09/11 00:44:54;;;;;;;28.70;24.37;;;;;;;;;;6256859;28;20278;-83
2023/09/11 00:47:59;;;;;;;30.52;24.02;;;;;;;;;;6261437;28;20480;-83
2023/09/11 00:51:37;;;;;;;32.65;23.60;;;;;;;;;;6264640;28;20049;-84
2023/09/11 00:54:46;;;;;;;32.20;24.58;;;;;;;;;;6258025;28;20356;-83
2023/09/11 00:58:03;;;;;;;29.90;23.63;;;;;;;;;;6265923;28;20109;-83
2023/09/11 01:08:39;;;;;;;26.58;23.35;;;;;;;;;;6251843;28;20053;-83
2023/09/11 01:11:42;;;;;;;29.25;23.73;;;;;;;;;;6265850;28;20108;-84
2023/09/11 01:14:44;;;;;;;30.98;23.40;;;;;;;;;;6262570;28;20057;-83
2023/09/11 01:17:50;;;;;;;28.33;23.48;;;;;;;;;;6265978;28;20068;-87
2023/09/11 01:21:29;;;;;;;32.15;24.15;;;;;;;;;;6263105;28;20057;-83
2023/09/11 01:25:01;;;;;;;32.20;23.17;;;;;;;;;;6266191;28;20068;-84
2023/09/11 01:31:52;;;;;;;27.75;23.05;;;;;;;;;;6134664;28;20291;-84
2023/09/11 01:34:54;;;;;;;29.33;22.95;;;;;;;;;;6191475;28;20057;-84
2023/09/11 01:37:57;;;;;;;26.90;22.60;;;;;;;;;;6177180;28;20069;-84
2023/09/11 01:41:00;;;;;;;27.95;22.50;;;;;;;;;;6192523;28;20302;-83
2023/09/11 01:44:06;;;;;;;27.48;22.73;;;;;;;;;;6188106;28;20078;-84
2023/09/11 01:47:11;;;;;;;26.13;21.38;;;;;;;;;;6186184;28;20054;-83
2023/09/11 01:50:14;;;;;;;28.85;24.48;;;;;;;;;;6189894;28;20121;-84
2023/09/11 01:53:16;;;;;;;;;;;;;;;;;;6190279;28;20062;-83
2023/09/11 01:56:19;;;;;;;27.27;21.10;;;;;;;;;;6191817;28;19925;-86
2023/09/11 01:59:21;;;;;;;28.23;23.13;;;;;;;;;;6185605;28;20054;-82
2023/09/11 02:02:29;;;;;;;29.70;23.15;;;;;;;;;;6191293;28;20351;-83
2023/09/11 02:05:31;;;;;;;30.92;24.55;;;;;;;;;;6247893;28;20116;-83
2023/09/11 02:08:33;;;;;;;24.40;20.92;;;;;;;;;;6268004;28;20048;-82
2023/09/11 02:11:35;;;;;;;24.67;21.08;;;;;;;;;;6271019;28;20053;-84
2023/09/11 02:14:37;;;;;;;25.55;21.92;;;;;;;;;;6267961;28;20049;-84
2023/09/11 02:17:41;;;;;;;26.33;21.80;;;;;;;;;;6271919;28;20061;-83
2023/09/11 02:20:47;;;;;;;;;;;;;;;;;;6270014;28;20400;-85
2023/09/11 02:23:49;;;;;;;29.75;23.38;;;;;;;;;;6269986;28;20145;-84
2023/09/11 02:26:51;;;;;;;26.20;22.55;;;;;;;;;;6271581;28;20075;-83
2023/09/11 02:30:19;;;;;;;26.65;21.55;;;;;;;;;;6266540;28;20053;-83
2023/09/11 02:37:11;;;;;;;25.85;20.85;;;;;;;;;;6260849;28;20049;-84
2023/09/11 02:40:33;;;;;;;25.15;22.30;;;;;;;;;;6247497;28;20336;-83
2023/09/11 02:43:55;;;;;;;24.00;20.98;;;;;;;;;;6251576;28;20203;-83
2023/09/11 02:51:04;;;;;;;25.80;21.70;;;;;;;;;;6266766;28;20048;-83
2023/09/11 02:54:08;;;;;;;26.13;21.83;;;;;;;;;;6183527;28;20074;-83
2023/09/11 02:57:10;;;;;;;27.63;21.40;;;;;;;;;;6182906;28;20362;-83
2023/09/11 03:00:12;;;;;;;25.58;21.75;;;;;;;;;;6190111;28;20251;-82
2023/09/11 03:03:14;;;;;;;25.03;21.90;;;;;;;;;;6193897;28;20083;-87
2023/09/11 03:06:16;;;;;;;27.23;23.35;;;;;;;;;;6191282;28;20477;-83
2023/09/11 03:09:41;;;;;;;25.58;22.30;;;;;;;;;;6189984;28;20070;-83
2023/09/11 03:12:43;;;;;;;26.80;22.13;;;;;;;;;;6177614;28;20056;-82
2023/09/11 03:15:45;;;;;;;27.02;23.50;;;;;;;;;;6192371;28;20313;-83
2023/09/11 03:18:47;;;;;;;25.20;22.48;;;;;;;;;;6191577;28;20068;-82
2023/09/11 03:21:51;;;;;;;26.33;22.67;;;;;;;;;;6186828;28;20062;-83
2023/09/11 03:24:55;;;;;;;29.63;22.48;;;;;;;;;;6192492;28;20054;-83
2023/09/11 03:28:34;;;;;;;24.88;22.17;;;;;;;;;;6191662;28;20082;-83
2023/09/11 03:31:36;;;;;;;26.98;22.65;;;;;;;;;;6257041;28;20056;-83
2023/09/11 03:34:38;;;;;;;27.52;23.55;;;;;;;;;;6267455;28;20103;-82
2023/09/11 03:37:40;;;;;;;31.08;23.98;;;;;;;;;;6265683;28;20274;-82
2023/09/11 03:40:48;;;;;;;27.35;23.48;;;;;;;;;;6265084;28;20045;-85
2023/09/11 03:43:50;;;;;;;29.38;23.90;;;;;;;;;;6268649;28;20126;-82
2023/09/11 03:46:52;;;;;;;35.38;26.35;;;;;;;;;;6269276;28;20053;-82
2023/09/11 03:49:54;;;;;;;29.08;23.27;;;;;;;;;;6269601;28;20094;-83
2023/09/11 03:52:56;;;;;;;29.13;24.98;;;;;;;;;;6267601;28;20339;-83
2023/09/11 03:56:04;;;;;;;27.30;24.30;;;;;;;;;;6267500;28;20059;-83
2023/09/11 03:59:12;;;;;;;31.25;23.67;;;;;;;;;;6254956;28;20159;-82
2023/09/11 04:02:15;;;;;;;27.75;23.33;;;;;;;;;;6256368;28;20206;-82
2023/09/11 04:05:25;;;;;;;29.45;24.58;;;;;;;;;;6264167;28;20069;-84
2023/09/11 04:08:58;;;;;;;33.25;24.98;;;;;;;;;;6256793;28;20048;-85
2023/09/11 04:12:02;;;;;;;27.42;22.90;;;;;;;;;;6261857;28;20372;-83
2023/09/11 04:15:05;;;;;;;29.17;24.27;;;;;;;;;;6265897;28;20553;-83
2023/09/11 04:18:07;;;;;;;27.83;23.30;;;;;;;;;;6258858;28;20061;-81
2023/09/11 04:21:12;;;;;;;27.73;21.48;;;;;;;;;;6266844;28;20114;-82
2023/09/11 04:24:15;;;;;;;27.45;22.13;;;;;;;;;;6260637;28;20063;-82
2023/09/11 04:27:18;;;;;;;27.20;21.73;;;;;;;;;;6267923;28;20452;-81
2023/09/11 04:30:21;;;;;;;27.67;23.25;;;;;;;;;;6268016;28;20044;-82
2023/09/11 04:33:23;;;;;;;30.60;23.73;;;;;;;;;;6265803;28;20044;-82
2023/09/11 04:36:25;;;;;;;26.80;22.75;;;;;;;;;;6269159;28;20045;-83
2023/09/11 04:40:08;;;;;;;34.05;22.55;;;;;;;;;;6266835;28;20116;-83
2023/09/11 04:43:11;;;;;;;30.05;22.10;;;;;;;;;;6261115;28;20053;-82
2023/09/11 04:46:13;;;;;;;30.17;24.30;;;;;;;;;;6272066;28;20060;-83
2023/09/11 04:49:15;;;;;;;27.92;22.45;;;;;;;;;;6267550;28;20053;-82
2023/09/11 04:52:19;;;;;;;30.58;23.50;;;;;;;;;;6262432;28;20104;-82
2023/09/11 04:55:20;;;;;;;34.10;24.02;;;;;;;;;;6267351;28;20348;-82
2023/09/11 04:58:30;;;;;;;30.15;24.45;;;;;;;;;;6266038;28;20244;-82
2023/09/11 05:01:35;;;;;;;31.85;24.20;;;;;;;;;;6265175;28;20053;-83
2023/09/11 05:04:37;;;;;;;26.80;23.63;;;;;;;;;;6263211;28;20053;-84
2023/09/11 05:08:32;;;;;;;;;;;;;;;;;;;;;
2023/09/11 05:11:34;;;;;;;29.95;24.10;;;;;;;;;;6251501;28;20866;-82
2023/09/11 05:15:13;;;;;;;37.00;26.92;;;;;;;;;;6266254;28;20108;-82
2023/09/11 05:18:20;;;;;;;33.28;25.95;;;;;;;;;;6261341;28;20052;-83
2023/09/11 05:21:32;;;;;;;29.40;24.58;;;;;;;;;;6262978;28;20372;-82
2023/09/11 05:25:01;;;;;;;29.52;25.00;;;;;;;;;;6260917;28;20063;-82
2023/09/11 05:28:14;;;;;;;38.50;24.77;;;;;;;;;;6238257;28;20133;-83
2023/09/11 05:34:56;;;;;;;28.95;23.55;;;;;;;;;;6245024;28;19963;-87
2023/09/11 05:38:34;;;;;;;28.90;24.73;;;;;;;;;;6265810;28;20060;-81
2023/09/11 05:45:02;;;;;;;30.23;23.70;;;;;;;;;;6267718;28;20045;-81
2023/09/11 05:48:06;;;;;;;25.85;22.90;;;;;;;;;;6277676;28;20121;-80
2023/09/11 05:51:08;;;;;;;30.73;23.67;;;;;;;;;;6270331;28;20057;-81
2023/09/11 05:54:11;;;;;;;27.92;22.40;;;;;;;;;;6267693;28;20110;-80
2023/09/11 05:57:13;;;;;;;32.40;23.92;;;;;;;;;;6272219;28;20053;-81
2023/09/11 06:00:15;;;;;;;27.80;23.13;;;;;;;;;;6271933;28;20063;-82
2023/09/11 06:03:19;;;;;;;25.88;22.58;;;;;;;;;;6270551;28;20301;-80
2023/09/11 06:06:20;;;;;;;26.02;23.20;;;;;;;;;;6269214;28;20353;-81
2023/09/11 06:09:22;;;;;;;26.90;22.15;;;;;;;;;;6272301;28;20068;-81
2023/09/11 06:12:29;;;;;;;28.42;23.20;;;;;;;;;;6270167;28;20379;-81
2023/09/11 06:15:37;;;;;;;27.95;22.40;;;;;;;;;;6272437;28;20053;-81
2023/09/11 06:18:41;;;;;;;29.65;22.35;;;;;;;;;;6273530;28;20046;-81
2023/09/11 06:21:45;;;;;;;32.40;23.92;;;;;;;;;;6270338;28;20064;-81
2023/09/11 06:24:53;;;;;;;29.05;22.80;;;;;;;;;;6271029;28;20084;-82
2023/09/11 06:27:56;;;;;;;27.25;22.20;;;;;;;;;;6268367;28;20061;-81
2023/09/11 06:30:59;;;;;;;;;;;;;;;;;;6268170;28;20045;-80
2023/09/11 06:34:09;;;;;;;34.45;25.75;;;;;;;;;;6273216;28;19929;-81
2023/09/11 06:37:11;;;;;;;31.83;22.73;;;;;;;;;;6264590;28;20337;-81
2023/09/11 06:40:12;;;;;;;30.92;24.27;;;;;;;;;;6270818;28;20111;-81
2023/09/11 06:43:15;;;;;;;27.85;23.05;;;;;;;;;;6266034;28;20067;-80
2023/09/11 06:46:17;;;;;;;28.57;23.03;;;;;;;;;;6267415;28;20410;-81
2023/09/11 06:49:20;;;;;;;29.85;24.33;;;;;;;;;;6266684;28;20100;-81
2023/09/11 06:52:37;;;;;;;26.77;21.52;;;;;;;;;;6268359;28;20097;-81
2023/09/11 06:55:55;;;;;;;29.13;24.10;;;;;;;;;;6268814;28;20065;-81
2023/09/11 06:58:57;;;;;;;26.42;23.08;;;;;;;;;;6266635;28;20045;-81
2023/09/11 07:01:59;;;;;;;26.23;22.35;;;;;;;;;;6269617;28;20057;-81
2023/09/11 07:05:04;;;;;;;26.13;22.20;;;;;;;;;;6269111;28;20057;-80
2023/09/11 07:08:06;;;;;;;27.23;23.95;;;;;;;;;;6269531;28;20045;-81
2023/09/11 07:11:08;;;;;;;31.87;24.00;;;;;;;;;;6268167;28;20277;-81
2023/09/11 07:14:12;;;;;;;27.40;23.20;;;;;;;;;;6266456;28;20073;-80
2023/09/11 07:17:14;;;;;;;28.20;22.38;;;;;;;;;;6267059;28;20052;-80
2023/09/11 07:20:18;;;;;;;25.30;22.07;;;;;;;;;;6268838;28;20338;-83
2023/09/11 07:23:20;;;;;;;28.98;23.63;;;;;;;;;;6269370;28;20060;-81
2023/09/11 07:26:25;;;;;;;34.17;23.70;;;;;;;;;;6267237;28;20335;-81
2023/09/11 07:29:27;;;;;;;27.80;22.98;;;;;;;;;;6266129;28;20059;-80
2023/09/11 07:32:32;;;;;;;33.33;23.67;;;;;;;;;;6266348;28;20053;-80
2023/09/11 07:35:36;;;;;;;27.02;22.10;;;;;;;;;;6267291;28;20486;-81
2023/09/11 07:38:44;;;;;;;28.60;23.73;;;;;;;;;;6270431;28;20123;-81
2023/09/11 07:41:47;;;;;;;26.63;21.40;;;;;;;;;;6268149;28;20312;-81
2023/09/11 07:44:49;;;;;;;27.17;22.00;;;;;;;;;;6267851;28;20446;-81
2023/09/11 07:47:54;;;;;;;31.23;22.73;;;;;;;;;;6269057;28;20044;-82
2023/09/11 07:51:07;;;;;;;28.65;20.73;;;;;;;;;;6247915;28;20076;-82
2023/09/11 07:54:09;;;;;;;23.43;19.87;;;;;;;;;;6267500;28;20100;-82
2023/09/11 07:57:12;;;;;;;26.52;20.48;;;;;;;;;;6267700;28;20048;-81
2023/09/11 08:00:30;;;;;;;25.65;21.38;;;;;;;;;;6267809;28;20065;-81
2023/09/11 08:03:44;;;;;;;28.27;19.98;;;;;;;;;;6255767;28;20408;-80
2023/09/11 08:06:47;;;;;;;28.00;20.45;;;;;;;;;;6265894;28;20115;-80
2023/09/11 08:18:09;;;;;;;24.13;21.52;;;;;;;;;;6262022;28;20049;-81
2023/09/11 08:21:12;;;;;;;27.00;20.90;;;;;;;;;;6264897;28;20049;-81
2023/09/11 11:04:24;;;;;;;17.15;14.23;;;;;;;;;;5958633;29;20082;-81
2023/09/11 15:53:38;;;;;;;9.35;8.20;;;;;;;;;;5901270;30;20061;-80
2023/09/11 15:56:40;;;;;;;10.70;8.80;;;;;;;;;;5887404;30;20056;-81
2023/09/11 16:13:13;;;;;;;10.57;9.27;;;;;;;;;;5987477;29;20137;-82
2023/09/11 16:28:47;;;;;;;10.15;9.10;;;;;;;;;;6097010;29;20051;-81
2023/09/11 16:32:42;;;;;;;12.98;9.30;;;;;;;;;;6086262;29;20054;-81
2023/09/11 16:39:46;;;;;;;15.10;10.07;;;;;;;;;;6101225;28;20074;-82
2023/09/11 16:46:37;;;;;;;10.88;9.70;;;;;;;;;;6148002;28;20310;-80
2023/09/11 16:49:43;;;;;;;11.52;9.02;;;;;;;;;;6143871;28;20062;-80
2023/09/11 16:52:47;;;;;;;11.93;10.05;;;;;;;;;;6155099;28;20055;-83
2023/09/11 17:13:11;;;;;;;16.15;9.88;;;;;;;;;;5956511;29;20321;-81
2023/09/11 17:44:04;;;;;;;12.65;11.10;;;;;;;;;;5938304;29;20055;-82
2023/09/11 17:50:53;;;;;;;12.43;10.20;;;;;;;;;;6040515;29;20093;-82
2023/09/11 18:05:08;;;;;;;19.27;10.98;;;;;;;;;;6022503;29;20291;-83
2023/09/11 18:12:33;;;;;;;16.95;10.60;;;;;;;;;;6105819;29;20063;-88
2023/09/11 18:20:19;;;;;;;;;;;;;;;;;;;;;
2023/09/11 18:31:40;;;;;;;13.50;10.48;;;;;;;;;;6100910;28;20048;-80
2023/09/11 18:34:45;;;;;;;11.43;9.95;;;;;;;;;;6122776;29;20052;-82
2023/09/11 18:37:50;;;;;;;13.13;10.13;;;;;;;;;;6143296;28;20062;-81
2023/09/11 18:41:11;;;;;;;11.10;9.68;;;;;;;;;;6157575;28;20126;-81
2023/09/11 18:44:16;;;;;;;24.75;11.43;;;;;;;;;;6174814;28;20063;-83
2023/09/11 18:50:52;;;;;;;12.30;10.23;;;;;;;;;;6163472;28;20049;-80
2023/09/11 18:53:56;;;;;;;16.15;9.75;;;;;;;;;;6173043;28;20232;-78
2023/09/11 18:57:01;;;;;;;12.43;9.82;;;;;;;;;;6173651;28;20346;-80
2023/09/11 19:00:15;;;;;;;18.10;10.05;;;;;;;;;;6177729;28;20516;-80
2023/09/11 19:04:00;;;;;;;14.73;11.05;;;;;;;;;;6178361;28;20102;-80
2023/09/11 19:10:18;;;;;;;15.75;10.45;;;;;;;;;;6245314;28;20064;-80
2023/09/11 19:13:21;;;;;;;13.60;10.40;;;;;;;;;;6279764;28;20241;-80
2023/09/11 19:16:23;;;;;;;14.88;10.18;;;;;;;;;;6281429;28;20063;-80
2023/09/11 19:19:27;;;;;;;15.38;10.40;;;;;;;;;;6270496;28;20600;-80
2023/09/11 19:22:29;;;;;;;15.63;11.07;;;;;;;;;;6277198;28;20094;-80
2023/09/11 19:25:41;;;;;;;13.90;10.07;;;;;;;;;;6280016;28;20116;-80
2023/09/11 19:28:44;;;;;;;15.95;10.60;;;;;;;;;;6286014;28;20041;-80
2023/09/11 19:31:49;;;;;;;14.68;11.75;;;;;;;;;;6291030;28;20115;-80
2023/09/11 19:35:08;;;;;;;22.58;13.20;;;;;;;;;;6279927;28;20053;-80
2023/09/11 19:38:09;;;;;;;16.08;11.93;;;;;;;;;;6289413;28;20248;-80
2023/09/11 19:41:20;;;;;;;14.80;11.35;;;;;;;;;;6303428;28;20095;-80
2023/09/11 19:44:24;;;;;;;20.05;12.00;;;;;;;;;;6304951;28;20062;-80
2023/09/11 19:47:52;;;;;;;21.67;15.73;;;;;;;;;;6303493;28;20106;-79
2023/09/11 19:51:06;;;;;;;23.65;13.13;;;;;;;;;;6219922;28;20054;-80
2023/09/11 19:54:15;;;;;;;19.02;11.02;;;;;;;;;;6203514;28;20262;-79
2023/09/11 19:57:20;;;;;;;18.77;10.63;;;;;;;;;;6205032;28;20085;-81
2023/09/11 20:00:24;;;;;;;16.52;10.43;;;;;;;;;;6181157;28;20043;-81
2023/09/11 20:03:26;;;;;;;17.38;11.43;;;;;;;;;;6194154;28;20089;-81
2023/09/11 20:06:28;;;;;;;14.87;11.07;;;;;;;;;;6211747;28;20105;-81
2023/09/11 20:09:33;;;;;;;15.10;10.48;;;;;;;;;;6219258;28;20061;-81
2023/09/11 20:12:38;;;;;;;13.98;11.27;;;;;;;;;;6210462;28;20050;-81
2023/09/11 20:15:42;;;;;;;20.35;11.40;;;;;;;;;;6206818;28;20116;-81
2023/09/11 20:18:44;;;;;;;17.08;11.65;;;;;;;;;;6195450;28;20054;-81
2023/09/11 20:21:46;;;;;;;18.52;11.18;;;;;;;;;;6206696;28;20117;-81
2023/09/11 20:24:48;;;;;;;16.67;11.75;;;;;;;;;;6216173;28;20077;-80
2023/09/11 20:27:52;;;;;;;14.60;11.93;;;;;;;;;;6278152;28;20119;-82
2023/09/11 20:31:32;;;;;;;17.23;12.68;;;;;;;;;;6288573;28;20213;-81
2023/09/11 20:34:37;;;;;;;21.73;14.20;;;;;;;;;;6294353;28;20112;-80
2023/09/11 20:37:39;;;;;;;18.83;13.95;;;;;;;;;;6303330;28;20052;-81
2023/09/11 20:40:44;;;;;;;16.20;13.45;;;;;;;;;;6281513;28;20106;-81
2023/09/11 20:43:46;;;;;;;18.50;13.77;;;;;;;;;;6302921;28;20049;-81
2023/09/11 20:46:49;;;;;;;19.75;13.95;;;;;;;;;;6301073;28;20048;-80
2023/09/11 20:49:51;;;;;;;18.38;14.38;;;;;;;;;;6303772;28;20058;-78
2023/09/11 20:52:54;;;;;;;17.55;14.35;;;;;;;;;;6300957;28;20064;-80
2023/09/11 20:55:56;;;;;;;15.40;13.00;;;;;;;;;;6299995;28;20383;-79
2023/09/11 20:59:05;;;;;;;14.18;12.55;;;;;;;;;;6300291;28;20048;-79
2023/09/11 21:02:26;;;;;;;15.90;12.38;;;;;;;;;;6299104;28;20041;-80
2023/09/11 21:05:29;;;;;;;15.63;12.02;;;;;;;;;;6299821;28;20380;-80
2023/09/11 21:08:31;;;;;;;19.20;13.65;;;;;;;;;;6301222;28;20058;-79
2023/09/11 21:11:41;;;;;;;15.18;12.90;;;;;;;;;;6299201;28;20067;-79
2023/09/11 21:14:43;;;;;;;15.80;11.98;;;;;;;;;;6289337;28;20332;-80
2023/09/11 21:17:50;;;;;;;13.48;11.98;;;;;;;;;;6288659;28;20054;-80
2023/09/11 21:20:52;;;;;;;16.98;12.35;;;;;;;;;;6297846;28;20052;-79
2023/09/11 21:23:54;;;;;;;19.85;11.18;;;;;;;;;;6301976;28;20060;-79
2023/09/11 21:26:56;;;;;;;14.98;12.23;;;;;;;;;;6298443;28;20052;-78
2023/09/11 21:29:58;;;;;;;14.13;11.35;;;;;;;;;;6301803;28;20048;-79
2023/09/11 21:33:01;;;;;;;16.52;12.57;;;;;;;;;;6302002;28;20149;-79
2023/09/11 21:36:03;;;;;;;17.75;12.18;;;;;;;;;;6301655;28;20124;-79
2023/09/11 21:39:05;;;;;;;19.07;13.23;;;;;;;;;;6298428;28;20067;-79
2023/09/11 21:42:10;;;;;;;17.07;12.40;;;;;;;;;;6301035;28;20055;-79
2023/09/11 21:45:12;;;;;;;20.85;13.80;;;;;;;;;;6302323;28;20218;-79
2023/09/11 21:48:15;;;;;;;20.05;12.65;;;;;;;;;;6301308;28;20056;-79
2023/09/11 21:51:19;;;;;;;17.73;12.77;;;;;;;;;;6302899;28;20052;-79
2023/09/11 21:54:21;;;;;;;17.48;13.82;;;;;;;;;;6301147;28;20060;-79
2023/09/11 21:57:23;;;;;;;17.15;12.65;;;;;;;;;;6298292;28;20052;-79
2023/09/11 22:00:25;;;;;;;19.83;13.15;;;;;;;;;;6301179;28;20056;-78
2023/09/11 22:03:29;;;;;;;19.88;13.10;;;;;;;;;;6302693;28;20628;-79
2023/09/11 22:06:31;;;;;;;14.55;12.48;;;;;;;;;;6289788;28;20040;-79
2023/09/11 22:09:33;;;;;;;14.05;12.52;;;;;;;;;;6283344;28;20063;-79
2023/09/11 22:12:35;;;;;;;16.10;13.05;;;;;;;;;;6301442;28;20244;-79
2023/09/11 22:15:36;;;;;;;15.05;12.52;;;;;;;;;;6299171;28;20052;-79
2023/09/11 22:18:39;;;;;;;13.98;11.32;;;;;;;;;;6303862;28;20329;-79
2023/09/11 22:21:41;;;;;;;;;;;;;;;;;;6307621;28;20118;-78
2023/09/11 22:24:44;;;;;;;14.52;11.20;;;;;;;;;;6305159;28;19954;-81
2023/09/11 22:27:45;;;;;;;14.68;10.60;;;;;;;;;;6300673;28;20064;-80
2023/09/11 22:31:26;;;;;;;13.40;9.70;;;;;;;;;;6302654;28;20044;-79
2023/09/11 22:34:31;;;;;;;12.20;9.10;;;;;;;;;;6292310;28;20057;-79
2023/09/11 22:37:39;;;;;;;12.75;9.55;;;;;;;;;;6306679;28;20052;-79
2023/09/11 22:43:59;;;;;;;12.02;9.18;;;;;;;;;;6289635;28;20274;-79
2023/09/11 22:47:03;;;;;;;19.77;9.55;;;;;;;;;;6302005;28;20064;-79
2023/09/11 22:53:36;;;;;;;13.75;9.23;;;;;;;;;;6298532;28;20053;-79
2023/09/11 22:56:38;;;;;;;13.10;11.10;;;;;;;;;;6303564;28;20287;-79
2023/09/11 22:59:40;;;;;;;11.95;9.00;;;;;;;;;;6306131;28;20059;-79
2023/09/11 23:03:12;;;;;;;12.48;9.45;;;;;;;;;;6302143;28;20044;-79
2023/09/11 23:06:19;;;;;;;12.32;9.10;;;;;;;;;;6294536;28;20051;-80
2023/09/11 23:09:20;;;;;;;13.90;10.73;;;;;;;;;;6294413;28;20040;-79
2023/09/11 23:12:25;;;;;;;11.77;9.38;;;;;;;;;;6277004;28;20230;-80
2023/09/11 23:15:28;;;;;;;13.40;8.93;;;;;;;;;;6278851;28;20048;-80
2023/09/11 23:18:31;;;;;;;13.52;10.45;;;;;;;;;;6278524;28;20053;-80
2023/09/11 23:21:36;;;;;;;15.23;10.20;;;;;;;;;;6272998;28;20284;-80
2023/09/11 23:24:39;;;;;;;14.25;10.23;;;;;;;;;;6296428;28;20084;-79
2023/09/11 23:27:51;;;;;;;12.52;10.30;;;;;;;;;;6279204;28;20061;-80
2023/09/11 23:31:00;;;;;;;13.75;10.18;;;;;;;;;;6303550;28;20060;-79
2023/09/11 23:34:28;;;;;;;14.00;10.10;;;;;;;;;;6290599;28;20052;-80
2023/09/11 23:37:32;;;;;;;14.48;10.32;;;;;;;;;;6292608;28;20060;-80
2023/09/11 23:41:12;;;;;;;14.25;11.48;;;;;;;;;;6268077;28;20072;-80
2023/09/11 23:44:32;;;;;;;15.95;11.70;;;;;;;;;;6268777;28;20084;-79
2023/09/11 23:47:50;;;;;;;14.60;12.32;;;;;;;;;;6279383;28;20371;-80
2023/09/11 23:51:04;;;;;;;18.17;12.45;;;;;;;;;;6276954;28;20107;-80
2023/09/11 23:54:07;;;;;;;15.85;12.07;;;;;;;;;;6277978;28;20341;-80
2023/09/11 23:57:20;;;;;;;17.13;13.00;;;;;;;;;;6276843;28;20114;-79
